createdAt,value
2017-02-09T00:00:07.456Z,928.38
2017-02-09T00:00:22.013Z,928.31
2017-02-09T00:00:36.580Z,928.33
2017-02-09T00:00:51.130Z,928.39
2017-02-09T00:01:05.763Z,928.37
2017-02-09T00:01:20.331Z,928.37
2017-02-09T00:01:34.935Z,928.38
2017-02-09T00:01:49.522Z,928.39
2017-02-09T00:02:04.026Z,928.41
2017-02-09T00:02:18.631Z,928.35
2017-02-09T00:02:33.228Z,928.43
2017-02-09T00:02:47.833Z,928.56
2017-02-09T00:03:02.439Z,928.41
2017-02-09T00:03:16.994Z,928.42
2017-02-09T00:03:31.559Z,928.43
2017-02-09T00:03:46.126Z,928.52
2017-02-09T00:04:00.744Z,928.51
2017-02-09T00:04:15.321Z,928.53
2017-02-09T00:04:29.896Z,928.47
2017-02-09T00:04:44.495Z,928.5
2017-02-09T00:04:59.088Z,928.56
2017-02-09T00:05:13.607Z,928.5
2017-02-09T00:05:28.183Z,928.48
2017-02-09T00:05:42.742Z,928.51
2017-02-09T00:05:57.262Z,928.52
2017-02-09T00:06:11.841Z,928.5
2017-02-09T00:06:26.386Z,928.48
2017-02-09T00:06:41.016Z,928.48
2017-02-09T00:06:55.576Z,928.46
2017-02-09T00:07:10.151Z,928.49
2017-02-09T00:07:24.716Z,928.52
2017-02-09T00:07:39.325Z,928.47
2017-02-09T00:07:53.905Z,928.47
2017-02-09T00:08:08.566Z,928.52
2017-02-09T00:08:23.127Z,928.46
2017-02-09T00:08:37.691Z,928.52
2017-02-09T00:08:52.292Z,928.64
2017-02-09T00:09:06.850Z,928.52
2017-02-09T00:09:21.487Z,928.71
2017-02-09T00:09:35.979Z,928.59
2017-02-09T00:09:50.553Z,928.63
2017-02-09T00:10:05.121Z,928.57
2017-02-09T00:10:19.620Z,928.55
2017-02-09T00:10:34.171Z,928.55
2017-02-09T00:10:48.703Z,928.64
2017-02-09T00:11:03.281Z,928.54
2017-02-09T00:11:17.924Z,928.53
2017-02-09T00:11:32.561Z,928.53
2017-02-09T00:11:47.301Z,928.59
2017-02-09T00:12:02.043Z,928.6
2017-02-09T00:12:16.624Z,928.58
2017-02-09T00:12:31.180Z,928.55
2017-02-09T00:12:45.719Z,928.61
2017-02-09T00:13:00.309Z,928.6
2017-02-09T00:13:14.946Z,928.64
2017-02-09T00:13:29.493Z,928.61
2017-02-09T00:13:44.146Z,928.57
2017-02-09T00:13:58.854Z,928.54
2017-02-09T00:14:13.429Z,928.55
2017-02-09T00:14:27.977Z,928.57
2017-02-09T00:14:42.513Z,928.55
2017-02-09T00:14:57.071Z,928.53
2017-02-09T00:15:11.647Z,928.6
2017-02-09T00:15:26.255Z,928.58
2017-02-09T00:15:40.842Z,928.67
2017-02-09T00:15:55.421Z,928.52
2017-02-09T00:16:09.944Z,928.64
2017-02-09T00:16:24.561Z,928.85
2017-02-09T00:16:39.113Z,928.59
2017-02-09T00:16:53.650Z,928.6
2017-02-09T00:17:08.185Z,928.62
2017-02-09T00:17:22.763Z,928.64
2017-02-09T00:17:37.359Z,928.69
2017-02-09T00:17:51.915Z,928.73
2017-02-09T00:18:06.521Z,928.61
2017-02-09T00:18:21.058Z,928.63
2017-02-09T00:18:35.630Z,928.68
2017-02-09T00:18:50.172Z,928.67
2017-02-09T00:19:04.671Z,928.64
2017-02-09T00:19:19.276Z,928.67
2017-02-09T00:19:33.815Z,928.69
2017-02-09T00:19:48.358Z,928.7
2017-02-09T00:20:02.920Z,928.66
2017-02-09T00:20:17.486Z,928.66
2017-02-09T00:20:31.958Z,928.73
2017-02-09T00:20:46.552Z,928.77
2017-02-09T00:21:01.083Z,928.67
2017-02-09T00:21:15.631Z,928.68
2017-02-09T00:21:30.195Z,928.69
2017-02-09T00:21:44.785Z,928.79
2017-02-09T00:21:59.371Z,928.7
2017-02-09T00:22:13.903Z,928.72
2017-02-09T00:22:28.446Z,928.69
2017-02-09T00:22:42.936Z,928.67
2017-02-09T00:22:57.480Z,928.64
2017-02-09T00:23:12.033Z,928.66
2017-02-09T00:23:26.588Z,928.62
2017-02-09T00:23:41.122Z,928.73
2017-02-09T00:23:55.696Z,928.73
2017-02-09T00:24:10.313Z,928.74
2017-02-09T00:24:24.876Z,928.72
2017-02-09T00:24:39.423Z,928.73
2017-02-09T00:24:54.001Z,928.72
2017-02-09T00:25:08.635Z,928.76
2017-02-09T00:25:23.239Z,928.74
2017-02-09T00:25:37.817Z,928.7
2017-02-09T00:25:52.434Z,928.67
2017-02-09T00:26:06.963Z,928.72
2017-02-09T00:26:21.555Z,928.74
2017-02-09T00:26:36.085Z,928.71
2017-02-09T00:26:50.648Z,928.75
2017-02-09T00:27:05.427Z,928.69
2017-02-09T00:27:20.069Z,928.74
2017-02-09T00:27:34.605Z,928.74
2017-02-09T00:27:49.200Z,928.72
2017-02-09T00:28:03.769Z,928.74
2017-02-09T00:28:18.341Z,928.76
2017-02-09T00:28:33.160Z,928.67
2017-02-09T00:28:47.710Z,928.74
2017-02-09T00:29:02.228Z,928.78
2017-02-09T00:29:16.790Z,928.74
2017-02-09T00:29:31.363Z,928.75
2017-02-09T00:29:45.919Z,928.73
2017-02-09T00:30:00.466Z,928.74
2017-02-09T00:30:15.070Z,928.71
2017-02-09T00:30:29.630Z,928.77
2017-02-09T00:30:44.210Z,928.78
2017-02-09T00:30:58.731Z,928.78
2017-02-09T00:31:13.267Z,928.78
2017-02-09T00:31:27.800Z,928.79
2017-02-09T00:31:42.399Z,928.76
2017-02-09T00:31:56.927Z,928.78
2017-02-09T00:32:11.434Z,928.81
2017-02-09T00:32:25.943Z,928.82
2017-02-09T00:32:40.538Z,928.83
2017-02-09T00:32:55.113Z,928.78
2017-02-09T00:33:09.692Z,928.77
2017-02-09T00:33:24.245Z,928.76
2017-02-09T00:33:38.782Z,928.84
2017-02-09T00:33:53.354Z,928.79
2017-02-09T00:34:07.950Z,928.86
2017-02-09T00:34:22.469Z,928.91
2017-02-09T00:34:37.034Z,928.79
2017-02-09T00:34:51.592Z,928.81
2017-02-09T00:35:06.149Z,928.88
2017-02-09T00:35:20.754Z,928.96
2017-02-09T00:35:35.301Z,928.72
2017-02-09T00:35:49.788Z,928.73
2017-02-09T00:36:04.328Z,928.78
2017-02-09T00:36:18.872Z,928.79
2017-02-09T00:36:33.432Z,928.73
2017-02-09T00:36:47.961Z,928.83
2017-02-09T00:37:02.487Z,928.83
2017-02-09T00:37:17.054Z,928.81
2017-02-09T00:37:31.633Z,928.84
2017-02-09T00:37:46.219Z,928.77
2017-02-09T00:38:00.723Z,928.76
2017-02-09T00:38:15.222Z,928.8
2017-02-09T00:38:29.862Z,928.76
2017-02-09T00:38:44.387Z,928.83
2017-02-09T00:38:58.856Z,928.84
2017-02-09T00:39:13.425Z,928.81
2017-02-09T00:39:27.972Z,928.91
2017-02-09T00:39:42.544Z,928.83
2017-02-09T00:39:57.065Z,928.8
2017-02-09T00:40:12.113Z,928.84
2017-02-09T00:40:26.669Z,928.75
2017-02-09T00:40:41.176Z,928.84
2017-02-09T00:40:55.713Z,928.8
2017-02-09T00:41:10.283Z,928.8
2017-02-09T00:41:24.875Z,928.77
2017-02-09T00:41:39.456Z,928.78
2017-02-09T00:41:54.028Z,928.78
2017-02-09T00:42:08.790Z,928.84
2017-02-09T00:42:23.302Z,928.82
2017-02-09T00:42:37.824Z,928.76
2017-02-09T00:42:52.381Z,928.81
2017-02-09T00:43:06.948Z,928.8
2017-02-09T00:43:21.531Z,928.75
2017-02-09T00:43:36.078Z,928.78
2017-02-09T00:43:50.582Z,928.81
2017-02-09T00:44:05.076Z,928.94
2017-02-09T00:44:19.583Z,928.81
2017-02-09T00:44:34.146Z,928.81
2017-02-09T00:44:48.692Z,928.89
2017-02-09T00:45:03.294Z,928.83
2017-02-09T00:45:17.859Z,928.79
2017-02-09T00:45:32.395Z,928.77
2017-02-09T00:45:46.955Z,928.82
2017-02-09T00:46:01.530Z,928.83
2017-02-09T00:46:16.131Z,928.88
2017-02-09T00:46:30.686Z,928.96
2017-02-09T00:46:45.254Z,928.94
2017-02-09T00:46:59.786Z,928.87
2017-02-09T00:47:14.436Z,928.8
2017-02-09T00:47:29.025Z,928.81
2017-02-09T00:47:43.608Z,928.87
2017-02-09T00:47:58.166Z,928.94
2017-02-09T00:48:12.710Z,928.92
2017-02-09T00:48:27.249Z,928.91
2017-02-09T00:48:41.795Z,928.93
2017-02-09T00:48:56.351Z,928.94
2017-02-09T00:49:10.969Z,928.89
2017-02-09T00:49:25.565Z,928.9
2017-02-09T00:49:40.156Z,928.87
2017-02-09T00:49:54.757Z,928.87
2017-02-09T00:50:09.294Z,928.9
2017-02-09T00:50:23.848Z,928.92
2017-02-09T00:50:38.381Z,928.87
2017-02-09T00:50:52.978Z,928.87
2017-02-09T00:51:07.520Z,928.86
2017-02-09T00:51:22.097Z,928.85
2017-02-09T00:51:36.673Z,928.91
2017-02-09T00:51:51.182Z,928.96
2017-02-09T00:52:05.698Z,928.9
2017-02-09T00:52:20.321Z,928.92
2017-02-09T00:52:34.919Z,928.86
2017-02-09T00:52:49.482Z,928.84
2017-02-09T00:53:04.024Z,928.89
2017-02-09T00:53:18.629Z,929.11
2017-02-09T00:53:33.267Z,929.03
2017-02-09T00:53:47.869Z,928.94
2017-02-09T00:54:02.398Z,928.92
2017-02-09T00:54:16.953Z,928.92
2017-02-09T00:54:31.506Z,928.98
2017-02-09T00:54:46.079Z,928.92
2017-02-09T00:55:00.560Z,928.92
2017-02-09T00:55:15.198Z,929.04
2017-02-09T00:55:29.761Z,928.93
2017-02-09T00:55:44.319Z,929.02
2017-02-09T00:55:58.887Z,928.97
2017-02-09T00:56:13.435Z,929
2017-02-09T00:56:27.990Z,928.98
2017-02-09T00:56:42.526Z,928.93
2017-02-09T00:56:57.006Z,928.97
2017-02-09T00:57:11.891Z,928.95
2017-02-09T00:57:26.437Z,928.94
2017-02-09T00:57:41.025Z,928.98
2017-02-09T00:57:55.653Z,928.95
2017-02-09T00:58:10.264Z,928.98
2017-02-09T00:58:24.863Z,928.97
2017-02-09T00:58:39.362Z,928.97
2017-02-09T00:58:53.873Z,929
2017-02-09T00:59:08.451Z,928.99
2017-02-09T00:59:23.000Z,929
2017-02-09T00:59:37.580Z,929.01
2017-02-09T00:59:52.104Z,929.02
2017-02-09T01:00:06.630Z,929.02
2017-02-09T01:00:21.828Z,929.02
2017-02-09T01:00:36.400Z,929.01
2017-02-09T01:00:50.966Z,928.96
2017-02-09T01:01:05.593Z,929.02
2017-02-09T01:01:20.178Z,929.02
2017-02-09T01:01:34.764Z,929.03
2017-02-09T01:01:49.336Z,929.01
2017-02-09T01:02:03.905Z,929.05
2017-02-09T01:02:18.480Z,929.08
2017-02-09T01:02:33.053Z,929.05
2017-02-09T01:02:47.593Z,929.04
2017-02-09T01:03:02.142Z,929.11
2017-02-09T01:03:16.703Z,929.07
2017-02-09T01:03:31.320Z,929.08
2017-02-09T01:03:45.913Z,929.08
2017-02-09T01:04:00.518Z,929.12
2017-02-09T01:04:15.098Z,929.09
2017-02-09T01:04:29.633Z,929.07
2017-02-09T01:04:44.215Z,929.15
2017-02-09T01:04:58.792Z,929.16
2017-02-09T01:05:13.351Z,929.06
2017-02-09T01:05:27.877Z,929.16
2017-02-09T01:05:42.353Z,929.19
2017-02-09T01:05:56.907Z,929.16
2017-02-09T01:06:11.508Z,929.22
2017-02-09T01:06:26.046Z,929.15
2017-02-09T01:06:40.480Z,929.19
2017-02-09T01:06:55.029Z,929.34
2017-02-09T01:07:09.587Z,929.26
2017-02-09T01:07:24.193Z,929.24
2017-02-09T01:07:38.723Z,929.17
2017-02-09T01:07:53.309Z,929.19
2017-02-09T01:08:07.840Z,929.23
2017-02-09T01:08:22.391Z,929.23
2017-02-09T01:08:36.886Z,929.24
2017-02-09T01:08:51.434Z,929.25
2017-02-09T01:09:05.950Z,929.21
2017-02-09T01:09:20.500Z,929.19
2017-02-09T01:09:35.114Z,929.2
2017-02-09T01:09:49.664Z,929.26
2017-02-09T01:10:04.160Z,929.32
2017-02-09T01:10:18.712Z,929.21
2017-02-09T01:10:33.312Z,929.32
2017-02-09T01:10:47.861Z,929.24
2017-02-09T01:11:02.344Z,929.23
2017-02-09T01:11:16.882Z,929.28
2017-02-09T01:11:31.474Z,929.33
2017-02-09T01:11:45.986Z,929.22
2017-02-09T01:12:00.541Z,929.3
2017-02-09T01:12:15.101Z,929.31
2017-02-09T01:12:29.923Z,929.27
2017-02-09T01:12:44.538Z,929.28
2017-02-09T01:12:59.101Z,929.32
2017-02-09T01:13:13.726Z,929.3
2017-02-09T01:13:28.305Z,929.28
2017-02-09T01:13:42.853Z,929.31
2017-02-09T01:13:57.430Z,929.28
2017-02-09T01:14:12.030Z,929.28
2017-02-09T01:14:26.676Z,929.28
2017-02-09T01:14:41.256Z,929.29
2017-02-09T01:14:55.844Z,929.32
2017-02-09T01:15:10.380Z,929.31
2017-02-09T01:15:24.978Z,929.28
2017-02-09T01:15:39.518Z,929.28
2017-02-09T01:15:54.109Z,929.3
2017-02-09T01:16:08.712Z,929.32
2017-02-09T01:16:23.241Z,929.32
2017-02-09T01:16:37.839Z,929.26
2017-02-09T01:16:52.392Z,929.24
2017-02-09T01:17:06.995Z,929.25
2017-02-09T01:17:21.556Z,929.31
2017-02-09T01:17:36.044Z,929.29
2017-02-09T01:17:50.572Z,929.32
2017-02-09T01:18:05.135Z,929.26
2017-02-09T01:18:19.642Z,929.25
2017-02-09T01:18:34.190Z,929.24
2017-02-09T01:18:48.785Z,929.23
2017-02-09T01:19:03.290Z,929.25
2017-02-09T01:19:17.797Z,929.19
2017-02-09T01:19:32.374Z,929.24
2017-02-09T01:19:46.976Z,929.24
2017-02-09T01:20:01.576Z,929.25
2017-02-09T01:20:16.181Z,929.23
2017-02-09T01:20:30.670Z,929.23
2017-02-09T01:20:45.270Z,929.26
2017-02-09T01:20:59.845Z,929.18
2017-02-09T01:21:14.361Z,929.18
2017-02-09T01:21:28.941Z,929.21
2017-02-09T01:21:43.547Z,929.22
2017-02-09T01:21:58.129Z,929.2
2017-02-09T01:22:12.630Z,929.22
2017-02-09T01:22:27.120Z,929.26
2017-02-09T01:22:41.670Z,929.23
2017-02-09T01:22:56.183Z,929.23
2017-02-09T01:23:10.691Z,929.24
2017-02-09T01:23:25.299Z,929.29
2017-02-09T01:23:39.938Z,929.22
2017-02-09T01:23:54.437Z,929.19
2017-02-09T01:24:08.981Z,929.25
2017-02-09T01:24:23.569Z,929.28
2017-02-09T01:24:38.135Z,929.22
2017-02-09T01:24:52.741Z,929.21
2017-02-09T01:25:07.327Z,929.24
2017-02-09T01:25:21.943Z,929.24
2017-02-09T01:25:36.426Z,929.25
2017-02-09T01:25:50.996Z,929.17
2017-02-09T01:26:05.564Z,929.26
2017-02-09T01:26:20.192Z,929.19
2017-02-09T01:26:34.775Z,929.22
2017-02-09T01:26:49.286Z,929.18
2017-02-09T01:27:03.870Z,929.18
2017-02-09T01:27:18.395Z,929.17
2017-02-09T01:27:33.142Z,929.2
2017-02-09T01:27:47.652Z,929.15
2017-02-09T01:28:02.159Z,929.24
2017-02-09T01:28:16.718Z,929.07
2017-02-09T01:28:31.277Z,929.22
2017-02-09T01:28:45.851Z,929.22
2017-02-09T01:29:00.467Z,929.18
2017-02-09T01:29:15.029Z,929.22
2017-02-09T01:29:29.561Z,929.23
2017-02-09T01:29:44.096Z,929.21
2017-02-09T01:29:58.574Z,929.25
2017-02-09T01:30:13.169Z,929.22
2017-02-09T01:30:27.745Z,929.11
2017-02-09T01:30:42.349Z,929.21
2017-02-09T01:30:56.923Z,929.25
2017-02-09T01:31:11.503Z,929.16
2017-02-09T01:31:26.099Z,929.24
2017-02-09T01:31:40.667Z,929.26
2017-02-09T01:31:55.259Z,929.2
2017-02-09T01:32:09.826Z,929.17
2017-02-09T01:32:24.392Z,929.25
2017-02-09T01:32:38.977Z,929.23
2017-02-09T01:32:53.532Z,929.14
2017-02-09T01:33:08.050Z,929.23
2017-02-09T01:33:22.602Z,929.19
2017-02-09T01:33:37.101Z,929.26
2017-02-09T01:33:51.649Z,929.23
2017-02-09T01:34:06.287Z,929.31
2017-02-09T01:34:21.073Z,929.17
2017-02-09T01:34:35.623Z,929.22
2017-02-09T01:34:50.162Z,929.25
2017-02-09T01:35:04.695Z,929.23
2017-02-09T01:35:19.214Z,929.27
2017-02-09T01:35:33.742Z,929.29
2017-02-09T01:35:48.307Z,929.17
2017-02-09T01:36:02.853Z,929.15
2017-02-09T01:36:17.381Z,929.17
2017-02-09T01:36:31.991Z,929.21
2017-02-09T01:36:46.555Z,929.17
2017-02-09T01:37:01.095Z,929.21
2017-02-09T01:37:15.696Z,929.22
2017-02-09T01:37:30.271Z,929.16
2017-02-09T01:37:44.856Z,929.23
2017-02-09T01:37:59.419Z,929.19
2017-02-09T01:38:13.943Z,929.18
2017-02-09T01:38:28.511Z,929.16
2017-02-09T01:38:43.137Z,929.21
2017-02-09T01:38:57.657Z,929.21
2017-02-09T01:39:12.211Z,929.19
2017-02-09T01:39:26.816Z,929.23
2017-02-09T01:39:41.428Z,929.16
2017-02-09T01:39:55.933Z,929.24
2017-02-09T01:40:10.471Z,929.26
2017-02-09T01:40:25.025Z,929.2
2017-02-09T01:40:39.607Z,929.21
2017-02-09T01:40:54.143Z,929.23
2017-02-09T01:41:08.710Z,929.16
2017-02-09T01:41:23.292Z,929.18
2017-02-09T01:41:37.830Z,929.2
2017-02-09T01:41:52.411Z,929.15
2017-02-09T01:42:07.021Z,929.15
2017-02-09T01:42:21.567Z,929.12
2017-02-09T01:42:36.298Z,929.17
2017-02-09T01:42:50.834Z,929.15
2017-02-09T01:43:05.413Z,929.13
2017-02-09T01:43:20.011Z,929.16
2017-02-09T01:43:34.593Z,929.15
2017-02-09T01:43:49.154Z,929.12
2017-02-09T01:44:03.700Z,929.11
2017-02-09T01:44:18.270Z,929.16
2017-02-09T01:44:32.859Z,929.16
2017-02-09T01:44:47.434Z,929.14
2017-02-09T01:45:01.971Z,929.16
2017-02-09T01:45:16.520Z,929.13
2017-02-09T01:45:31.122Z,929.14
2017-02-09T01:45:45.671Z,929.12
2017-02-09T01:46:00.305Z,929.14
2017-02-09T01:46:14.918Z,929.12
2017-02-09T01:46:29.440Z,929.15
2017-02-09T01:46:44.007Z,929.15
2017-02-09T01:46:58.562Z,929.17
2017-02-09T01:47:13.074Z,929.19
2017-02-09T01:47:27.634Z,929.1
2017-02-09T01:47:42.135Z,929.15
2017-02-09T01:47:56.653Z,929.15
2017-02-09T01:48:11.219Z,929.14
2017-02-09T01:48:25.813Z,929.17
2017-02-09T01:48:40.414Z,929.13
2017-02-09T01:48:55.035Z,929.19
2017-02-09T01:49:09.607Z,929.19
2017-02-09T01:49:24.205Z,929.17
2017-02-09T01:49:38.784Z,929.19
2017-02-09T01:49:53.377Z,929.16
2017-02-09T01:50:07.978Z,929.16
2017-02-09T01:50:22.566Z,929.19
2017-02-09T01:50:37.150Z,929.16
2017-02-09T01:50:51.700Z,929.19
2017-02-09T01:51:06.266Z,929.17
2017-02-09T01:51:20.825Z,929.21
2017-02-09T01:51:35.368Z,929.22
2017-02-09T01:51:49.919Z,929.17
2017-02-09T01:52:04.530Z,929.2
2017-02-09T01:52:19.068Z,929.2
2017-02-09T01:52:33.630Z,929.27
2017-02-09T01:52:48.154Z,929.23
2017-02-09T01:53:02.702Z,929.23
2017-02-09T01:53:17.240Z,929.24
2017-02-09T01:53:31.786Z,929.21
2017-02-09T01:53:46.326Z,929.22
2017-02-09T01:54:00.878Z,929.26
2017-02-09T01:54:15.477Z,929.22
2017-02-09T01:54:30.070Z,929.22
2017-02-09T01:54:44.589Z,929.24
2017-02-09T01:54:59.104Z,929.24
2017-02-09T01:55:13.662Z,929.27
2017-02-09T01:55:28.165Z,929.23
2017-02-09T01:55:42.720Z,929.26
2017-02-09T01:55:57.244Z,929.26
2017-02-09T01:56:11.789Z,929.23
2017-02-09T01:56:26.344Z,929.19
2017-02-09T01:56:40.921Z,929.2
2017-02-09T01:56:55.516Z,929.23
2017-02-09T01:57:10.068Z,929.27
2017-02-09T01:57:24.669Z,929.27
2017-02-09T01:57:39.539Z,929.25
2017-02-09T01:57:54.062Z,929.22
2017-02-09T01:58:08.643Z,929.26
2017-02-09T01:58:23.224Z,929.25
2017-02-09T01:58:37.778Z,929.24
2017-02-09T01:58:52.352Z,929.26
2017-02-09T01:59:06.939Z,929.25
2017-02-09T01:59:21.485Z,929.26
2017-02-09T01:59:36.051Z,929.24
2017-02-09T01:59:50.608Z,929.22
2017-02-09T02:00:05.194Z,929.23
2017-02-09T02:00:19.763Z,929.28
2017-02-09T02:00:34.327Z,929.23
2017-02-09T02:00:48.914Z,929.22
2017-02-09T02:01:03.462Z,929.19
2017-02-09T02:01:17.995Z,929.16
2017-02-09T02:01:32.563Z,929.16
2017-02-09T02:01:47.159Z,929.2
2017-02-09T02:02:01.706Z,929.23
2017-02-09T02:02:16.292Z,929.18
2017-02-09T02:02:30.776Z,929.2
2017-02-09T02:02:45.419Z,929.17
2017-02-09T02:02:59.989Z,929.16
2017-02-09T02:03:14.615Z,929.18
2017-02-09T02:03:29.199Z,929.18
2017-02-09T02:03:43.804Z,929.18
2017-02-09T02:03:58.466Z,929.14
2017-02-09T02:04:13.047Z,929.21
2017-02-09T02:04:27.576Z,929.19
2017-02-09T02:04:42.114Z,929.24
2017-02-09T02:04:56.736Z,929.23
2017-02-09T02:05:11.335Z,929.2
2017-02-09T02:05:25.897Z,929.15
2017-02-09T02:05:40.566Z,929.24
2017-02-09T02:05:55.068Z,929.24
2017-02-09T02:06:09.621Z,929.21
2017-02-09T02:06:24.156Z,929.19
2017-02-09T02:06:38.740Z,929.22
2017-02-09T02:06:53.320Z,929.19
2017-02-09T02:07:07.923Z,929.22
2017-02-09T02:07:22.499Z,929.28
2017-02-09T02:07:37.055Z,929.27
2017-02-09T02:07:51.618Z,929.2
2017-02-09T02:08:06.106Z,929.22
2017-02-09T02:08:20.682Z,929.2
2017-02-09T02:08:35.237Z,929.25
2017-02-09T02:08:49.829Z,929.2
2017-02-09T02:09:04.341Z,929.24
2017-02-09T02:09:18.912Z,929.18
2017-02-09T02:09:33.482Z,929.17
2017-02-09T02:09:48.005Z,929.28
2017-02-09T02:10:02.591Z,929.23
2017-02-09T02:10:17.180Z,929.23
2017-02-09T02:10:31.742Z,929.24
2017-02-09T02:10:46.360Z,929.23
2017-02-09T02:11:00.906Z,929.23
2017-02-09T02:11:15.508Z,929.22
2017-02-09T02:11:30.008Z,929.28
2017-02-09T02:11:44.588Z,929.28
2017-02-09T02:11:59.104Z,929.25
2017-02-09T02:12:13.685Z,929.25
2017-02-09T02:12:28.245Z,929.21
2017-02-09T02:12:42.888Z,929.27
2017-02-09T02:12:57.854Z,929.28
2017-02-09T02:13:12.426Z,929.25
2017-02-09T02:13:27.013Z,929.23
2017-02-09T02:13:41.532Z,929.27
2017-02-09T02:13:56.130Z,929.27
2017-02-09T02:14:10.685Z,929.24
2017-02-09T02:14:25.251Z,929.33
2017-02-09T02:14:39.809Z,929.27
2017-02-09T02:14:54.397Z,929.23
2017-02-09T02:15:08.992Z,929.21
2017-02-09T02:15:23.603Z,929.21
2017-02-09T02:15:38.164Z,929.19
2017-02-09T02:15:52.726Z,929.22
2017-02-09T02:16:07.306Z,929.23
2017-02-09T02:16:21.868Z,929.22
2017-02-09T02:16:36.426Z,929.21
2017-02-09T02:16:50.972Z,929.25
2017-02-09T02:17:05.521Z,929.22
2017-02-09T02:17:20.081Z,929.24
2017-02-09T02:17:34.675Z,929.17
2017-02-09T02:17:49.271Z,929.13
2017-02-09T02:18:03.844Z,929.16
2017-02-09T02:18:18.410Z,929.16
2017-02-09T02:18:33.045Z,929.17
2017-02-09T02:18:47.600Z,929.19
2017-02-09T02:19:02.209Z,929.17
2017-02-09T02:19:16.783Z,929.16
2017-02-09T02:19:31.349Z,929.15
2017-02-09T02:19:46.012Z,929.17
2017-02-09T02:20:00.580Z,929.22
2017-02-09T02:20:15.144Z,929.19
2017-02-09T02:20:29.671Z,929.15
2017-02-09T02:20:44.211Z,929.19
2017-02-09T02:20:58.731Z,929.18
2017-02-09T02:21:13.322Z,929.17
2017-02-09T02:21:27.864Z,929.17
2017-02-09T02:21:42.376Z,929.16
2017-02-09T02:21:56.906Z,929.19
2017-02-09T02:22:11.504Z,929.2
2017-02-09T02:22:26.127Z,929.13
2017-02-09T02:22:40.670Z,929.17
2017-02-09T02:22:55.241Z,929.21
2017-02-09T02:23:09.799Z,929.25
2017-02-09T02:23:24.399Z,929.23
2017-02-09T02:23:38.954Z,929.24
2017-02-09T02:23:53.511Z,929.09
2017-02-09T02:24:08.048Z,929.16
2017-02-09T02:24:22.610Z,929.13
2017-02-09T02:24:37.200Z,929.15
2017-02-09T02:24:51.812Z,929.15
2017-02-09T02:25:06.414Z,929.1
2017-02-09T02:25:20.971Z,929.05
2017-02-09T02:25:35.563Z,929.09
2017-02-09T02:25:50.077Z,929.04
2017-02-09T02:26:04.593Z,929.06
2017-02-09T02:26:19.169Z,929.1
2017-02-09T02:26:33.744Z,929.03
2017-02-09T02:26:48.346Z,929.08
2017-02-09T02:27:02.924Z,929.04
2017-02-09T02:27:17.472Z,929.02
2017-02-09T02:27:32.028Z,929.02
2017-02-09T02:27:46.563Z,929
2017-02-09T02:28:01.385Z,928.99
2017-02-09T02:28:15.999Z,929.03
2017-02-09T02:28:30.581Z,929
2017-02-09T02:28:45.143Z,929.01
2017-02-09T02:28:59.762Z,928.98
2017-02-09T02:29:14.269Z,929.04
2017-02-09T02:29:28.910Z,928.99
2017-02-09T02:29:44.053Z,929.03
2017-02-09T02:29:58.633Z,929.03
2017-02-09T02:30:13.202Z,928.99
2017-02-09T02:30:27.762Z,929.01
2017-02-09T02:30:42.311Z,929
2017-02-09T02:30:56.817Z,929.01
2017-02-09T02:31:11.372Z,928.99
2017-02-09T02:31:25.969Z,928.97
2017-02-09T02:31:40.560Z,928.95
2017-02-09T02:31:55.108Z,928.92
2017-02-09T02:32:09.632Z,928.97
2017-02-09T02:32:24.219Z,928.99
2017-02-09T02:32:38.787Z,928.97
2017-02-09T02:32:53.935Z,928.98
2017-02-09T02:33:08.482Z,928.95
2017-02-09T02:33:23.073Z,928.97
2017-02-09T02:33:38.699Z,928.99
2017-02-09T02:33:56.142Z,928.95
2017-02-09T02:34:11.669Z,928.92
2017-02-09T02:34:26.243Z,928.91
2017-02-09T02:34:40.824Z,928.94
2017-02-09T02:34:55.379Z,928.95
2017-02-09T02:35:09.944Z,928.87
2017-02-09T02:35:24.537Z,928.91
2017-02-09T02:35:39.112Z,928.95
2017-02-09T02:35:53.645Z,928.85
2017-02-09T02:36:08.232Z,928.88
2017-02-09T02:36:22.793Z,928.9
2017-02-09T02:36:37.384Z,928.93
2017-02-09T02:36:51.982Z,928.84
2017-02-09T02:37:06.561Z,928.87
2017-02-09T02:37:21.158Z,928.9
2017-02-09T02:37:35.671Z,928.97
2017-02-09T02:37:50.238Z,928.8
2017-02-09T02:38:04.857Z,928.84
2017-02-09T02:38:19.450Z,928.89
2017-02-09T02:38:34.030Z,928.86
2017-02-09T02:38:48.614Z,928.88
2017-02-09T02:39:03.108Z,928.92
2017-02-09T02:39:17.660Z,928.8
2017-02-09T02:39:32.208Z,928.85
2017-02-09T02:39:46.747Z,928.96
2017-02-09T02:40:01.290Z,928.84
2017-02-09T02:40:15.868Z,928.86
2017-02-09T02:40:30.643Z,928.83
2017-02-09T02:40:45.209Z,928.86
2017-02-09T02:40:59.817Z,928.86
2017-02-09T02:41:14.362Z,928.9
2017-02-09T02:41:28.950Z,928.83
2017-02-09T02:41:43.500Z,928.9
2017-02-09T02:41:58.135Z,928.83
2017-02-09T02:42:12.695Z,928.87
2017-02-09T02:42:27.226Z,928.85
2017-02-09T02:42:41.773Z,928.8
2017-02-09T02:42:56.303Z,928.91
2017-02-09T02:43:11.050Z,928.82
2017-02-09T02:43:25.567Z,928.88
2017-02-09T02:43:40.123Z,928.82
2017-02-09T02:43:54.706Z,928.81
2017-02-09T02:44:09.219Z,928.79
2017-02-09T02:44:23.764Z,928.81
2017-02-09T02:44:38.300Z,928.84
2017-02-09T02:44:52.835Z,928.8
2017-02-09T02:45:07.406Z,928.84
2017-02-09T02:45:21.967Z,928.84
2017-02-09T02:45:36.619Z,928.75
2017-02-09T02:45:51.142Z,928.81
2017-02-09T02:46:05.677Z,928.8
2017-02-09T02:46:20.235Z,928.79
2017-02-09T02:46:34.767Z,928.85
2017-02-09T02:46:49.295Z,928.8
2017-02-09T02:47:03.838Z,928.82
2017-02-09T02:47:18.407Z,928.88
2017-02-09T02:47:32.954Z,928.83
2017-02-09T02:47:47.549Z,928.83
2017-02-09T02:48:02.091Z,928.82
2017-02-09T02:48:16.665Z,928.78
2017-02-09T02:48:31.256Z,928.82
2017-02-09T02:48:45.803Z,928.82
2017-02-09T02:49:00.409Z,928.78
2017-02-09T02:49:15.178Z,928.78
2017-02-09T02:49:29.741Z,928.78
2017-02-09T02:49:44.304Z,928.79
2017-02-09T02:49:58.896Z,928.81
2017-02-09T02:50:13.690Z,928.79
2017-02-09T02:50:28.241Z,928.82
2017-02-09T02:50:42.778Z,928.76
2017-02-09T02:50:57.333Z,928.78
2017-02-09T02:51:11.944Z,928.79
2017-02-09T02:51:26.479Z,928.78
2017-02-09T02:51:41.058Z,928.77
2017-02-09T02:51:55.591Z,928.77
2017-02-09T02:52:10.143Z,928.74
2017-02-09T02:52:24.714Z,928.73
2017-02-09T02:52:39.307Z,928.74
2017-02-09T02:52:53.889Z,928.74
2017-02-09T02:53:08.392Z,928.75
2017-02-09T02:53:22.964Z,928.73
2017-02-09T02:53:37.541Z,928.75
2017-02-09T02:53:52.118Z,928.72
2017-02-09T02:54:06.685Z,928.66
2017-02-09T02:54:21.292Z,928.72
2017-02-09T02:54:35.825Z,928.71
2017-02-09T02:54:50.371Z,928.71
2017-02-09T02:55:04.915Z,928.71
2017-02-09T02:55:19.469Z,928.66
2017-02-09T02:55:34.076Z,928.68
2017-02-09T02:55:48.663Z,928.7
2017-02-09T02:56:03.220Z,928.68
2017-02-09T02:56:17.745Z,928.63
2017-02-09T02:56:32.258Z,928.7
2017-02-09T02:56:46.837Z,928.65
2017-02-09T02:57:01.372Z,928.7
2017-02-09T02:57:15.996Z,928.65
2017-02-09T02:57:30.590Z,928.65
2017-02-09T02:57:45.196Z,928.66
2017-02-09T02:57:59.773Z,928.64
2017-02-09T02:58:14.620Z,928.67
2017-02-09T02:58:29.146Z,928.62
2017-02-09T02:58:43.713Z,928.67
2017-02-09T02:58:58.224Z,928.59
2017-02-09T02:59:12.840Z,928.69
2017-02-09T02:59:27.403Z,928.67
2017-02-09T02:59:41.994Z,928.71
2017-02-09T02:59:56.619Z,928.67
2017-02-09T03:00:11.188Z,928.65
2017-02-09T03:00:25.814Z,928.65
2017-02-09T03:00:40.443Z,928.76
2017-02-09T03:00:55.012Z,928.63
2017-02-09T03:01:09.581Z,928.67
2017-02-09T03:01:24.191Z,928.63
2017-02-09T03:01:38.802Z,928.63
2017-02-09T03:01:53.394Z,928.65
2017-02-09T03:02:08.002Z,928.62
2017-02-09T03:02:22.597Z,928.66